Terminal Aerodrome Forecast
Issued by NWS

Home | Current Version | Previous Version | Text Only | Print | Product List | Glossary On
Versions: 1 2 3 4 5 6 7 8 9 10 11 12 13 14 15 16
265
FTUS46 KHNX 251723
TAFFAT
TAF
KFAT 251723Z 2518/2618 VRB03KT P6SM BKN008 OVC029
     FM252000 32007KT P6SM BKN025
     FM260000 31010KT P6SM BKN050
     FM260800 VRB04KT P6SM SCT050=

USA.gov is the U.S. government's official web portal to all federal, state and local government web resources and services.